createdAt,value
2023-01-10T00:02:07.306Z,11.68
2023-01-10T00:04:34.974Z,11.67
2023-01-10T00:07:02.610Z,11.61
2023-01-10T00:09:31.665Z,11.28
2023-01-10T00:12:16.843Z,11.55
2023-01-10T00:14:44.501Z,11.46
2023-01-10T00:17:12.167Z,11.53
2023-01-10T00:19:39.819Z,11.53
2023-01-10T00:22:16.814Z,11.54
2023-01-10T00:24:45.707Z,11.52
2023-01-10T00:27:17.037Z,11.52
2023-01-10T00:29:44.757Z,11.53
2023-01-10T00:32:12.381Z,11.47
2023-01-10T00:34:39.962Z,11.53
2023-01-10T00:37:07.618Z,11.54
2023-01-10T00:39:35.193Z,11.54
2023-01-10T00:42:22.480Z,11.48
2023-01-10T00:44:50.104Z,11.50
2023-01-10T00:47:18.677Z,11.45
2023-01-10T00:49:46.740Z,11.42
2023-01-10T00:52:14.352Z,11.43
2023-01-10T00:54:41.911Z,11.39
2023-01-10T00:57:10.985Z,11.39
2023-01-10T00:59:38.555Z,11.39
2023-01-10T01:02:06.281Z,11.41
2023-01-10T01:04:35.153Z,11.35
2023-01-10T01:07:02.873Z,11.34
2023-01-10T01:09:30.708Z,11.33
2023-01-10T01:14:41.086Z,11.32
2023-01-10T01:17:08.779Z,11.31
2023-01-10T01:19:36.590Z,11.20
2023-01-10T01:22:04.160Z,11.22
2023-01-10T01:24:31.887Z,11.24
2023-01-10T01:26:59.461Z,11.28
2023-01-10T01:29:35.255Z,11.26
2023-01-10T01:32:12.023Z,11.23
2023-01-10T01:34:39.718Z,11.22
2023-01-10T01:37:07.516Z,11.19
2023-01-10T01:39:35.087Z,11.15
2023-01-10T01:42:02.976Z,11.16
2023-01-10T01:44:31.454Z,11.10
2023-01-10T01:47:02.956Z,11.04
2023-01-10T01:49:31.952Z,11.11
2023-01-10T01:52:01.742Z,10.95
2023-01-10T01:54:29.292Z,11.06
2023-01-10T01:56:59.385Z,11.07
2023-01-10T01:59:28.421Z,11.08
2023-01-10T02:01:58.408Z,11.09
2023-01-10T02:04:28.285Z,11.03
2023-01-10T02:06:57.329Z,11.12
2023-01-10T02:09:26.015Z,10.90
2023-01-10T02:11:53.711Z,11.14
2023-01-10T02:14:21.453Z,11.15
2023-01-10T02:16:49.164Z,11.11
2023-01-10T02:19:21.161Z,10.97
2023-01-10T02:22:19.421Z,11.16
2023-01-10T02:25:19.580Z,11.14
2023-01-10T02:27:55.670Z,11.03
2023-01-10T02:30:48.380Z,11.11
2023-01-10T02:33:20.480Z,11.08
2023-01-10T02:36:05.174Z,11.03
2023-01-10T02:38:40.231Z,11.03
2023-01-10T02:41:19.740Z,11.00
2023-01-10T02:43:48.997Z,10.97
2023-01-10T02:46:17.910Z,10.97
2023-01-10T02:48:47.073Z,10.97
2023-01-10T02:51:18.283Z,10.94
2023-01-10T02:53:47.127Z,10.67
2023-01-10T02:56:38.353Z,10.90
2023-01-10T02:59:27.993Z,10.84
2023-01-10T03:01:57.874Z,10.81
2023-01-10T03:04:31.703Z,10.75
2023-01-10T03:07:00.963Z,10.74
2023-01-10T03:09:33.555Z,10.71
2023-01-10T03:12:03.850Z,10.65
2023-01-10T03:14:31.420Z,10.73
2023-01-10T03:17:00.099Z,10.35
2023-01-10T03:19:30.713Z,10.37
2023-01-10T03:22:00.340Z,10.58
2023-01-10T03:24:29.844Z,10.71
2023-01-10T03:26:59.990Z,10.58
2023-01-10T03:29:30.647Z,10.45
2023-01-10T03:32:00.715Z,10.69
2023-01-10T03:34:29.868Z,10.74
2023-01-10T03:37:04.525Z,10.70
2023-01-10T03:39:34.012Z,10.81
2023-01-10T03:42:06.847Z,10.79
2023-01-10T03:44:46.486Z,10.79
2023-01-10T03:47:20.288Z,10.63
2023-01-10T03:49:50.434Z,10.64
2023-01-10T03:52:18.827Z,10.69
2023-01-10T03:54:46.441Z,10.82
2023-01-10T03:57:18.835Z,10.84
2023-01-10T03:59:46.543Z,10.82
2023-01-10T04:02:14.264Z,10.92
2023-01-10T04:04:41.857Z,10.94
2023-01-10T04:07:10.804Z,10.90
2023-01-10T04:09:38.355Z,10.86
2023-01-10T04:12:06.630Z,10.85
2023-01-10T04:14:34.416Z,10.86
2023-01-10T04:17:01.974Z,10.79
2023-01-10T04:19:32.386Z,10.76
2023-01-10T04:22:01.774Z,10.69
2023-01-10T04:24:30.896Z,10.61
2023-01-10T04:26:58.608Z,10.62
2023-01-10T04:29:27.063Z,10.54
2023-01-10T04:31:54.680Z,10.55
2023-01-10T04:34:22.458Z,10.53
2023-01-10T04:36:54.139Z,10.49
2023-01-10T04:39:22.144Z,10.20
2023-01-10T04:41:51.277Z,10.51
2023-01-10T04:44:18.844Z,10.48
2023-01-10T04:46:46.576Z,10.50
2023-01-10T04:49:14.370Z,10.50
2023-01-10T04:51:42.085Z,10.51
2023-01-10T04:54:09.663Z,10.55
2023-01-10T04:56:37.617Z,10.56
2023-01-10T04:59:07.412Z,10.54
2023-01-10T05:01:38.884Z,10.56
2023-01-10T05:04:06.910Z,10.58
2023-01-10T05:06:34.481Z,10.53
2023-01-10T05:09:02.185Z,10.54
2023-01-10T05:11:29.830Z,10.56
2023-01-10T05:13:57.382Z,10.45
2023-01-10T05:16:26.502Z,10.49
2023-01-10T05:18:54.059Z,10.56
2023-01-10T05:21:21.744Z,10.58
2023-01-10T05:23:49.305Z,10.57
2023-01-10T05:26:17.655Z,10.56
2023-01-10T05:28:45.502Z,10.58
2023-01-10T05:31:14.429Z,10.56
2023-01-10T05:33:46.564Z,10.57
2023-01-10T05:36:14.144Z,10.60
2023-01-10T05:38:42.005Z,10.56
2023-01-10T05:41:09.605Z,10.56
2023-01-10T05:43:37.397Z,10.56
2023-01-10T05:46:05.318Z,10.60
2023-01-10T05:48:33.123Z,10.61
2023-01-10T05:51:02.159Z,10.64
2023-01-10T05:53:29.978Z,10.65
2023-01-10T05:56:00.028Z,10.66
2023-01-10T05:58:27.967Z,10.69
2023-01-10T06:00:56.087Z,10.69
2023-01-10T06:03:24.975Z,10.65
2023-01-10T06:05:52.559Z,10.71
2023-01-10T06:08:25.137Z,10.68
2023-01-10T06:10:52.927Z,10.71
2023-01-10T06:13:20.553Z,10.69
2023-01-10T06:15:48.378Z,10.70
2023-01-10T06:18:16.068Z,10.72
2023-01-10T06:20:43.915Z,10.70
2023-01-10T06:23:11.506Z,10.72
2023-01-10T06:25:41.658Z,10.70
2023-01-10T06:28:09.405Z,10.74
2023-01-10T06:30:37.316Z,10.76
2023-01-10T06:33:05.824Z,10.76
2023-01-10T06:35:33.787Z,10.69
2023-01-10T06:38:01.509Z,10.64
2023-01-10T06:40:29.619Z,10.75
2023-01-10T06:42:59.159Z,10.72
2023-01-10T06:45:27.093Z,10.75
2023-01-10T06:47:54.679Z,10.75
2023-01-10T06:50:22.536Z,10.74
2023-01-10T06:52:56.292Z,10.68
2023-01-10T06:55:24.268Z,10.67
2023-01-10T06:57:56.413Z,10.66
2023-01-10T07:00:25.846Z,10.65
2023-01-10T07:02:54.234Z,10.66
2023-01-10T07:05:21.791Z,10.67
2023-01-10T07:07:49.514Z,10.68
2023-01-10T07:10:17.922Z,10.57
2023-01-10T07:15:19.789Z,10.75
2023-01-10T07:17:48.809Z,10.74
2023-01-10T07:20:16.536Z,10.61
2023-01-10T07:22:45.228Z,10.74
2023-01-10T07:25:12.857Z,10.73
2023-01-10T07:27:43.246Z,10.68
2023-01-10T07:30:12.170Z,10.77
2023-01-10T07:32:39.907Z,10.81
2023-01-10T07:35:09.814Z,10.76
2023-01-10T07:37:37.405Z,10.79
2023-01-10T07:40:05.717Z,10.78
2023-01-10T07:42:33.318Z,10.79
2023-01-10T07:45:00.900Z,10.79
2023-01-10T07:47:29.019Z,10.82
2023-01-10T07:49:56.671Z,10.84
2023-01-10T07:52:25.721Z,10.86
2023-01-10T07:54:53.674Z,10.84
2023-01-10T07:57:21.251Z,10.84
2023-01-10T07:59:49.151Z,10.84
2023-01-10T08:02:16.754Z,10.82
2023-01-10T08:04:44.381Z,10.82
2023-01-10T08:07:11.941Z,10.79
2023-01-10T08:09:40.977Z,10.78
2023-01-10T08:12:08.661Z,10.78
2023-01-10T08:14:36.319Z,10.75
2023-01-10T08:17:07.006Z,10.73
2023-01-10T08:19:34.670Z,10.78
2023-01-10T08:22:03.077Z,10.72
2023-01-10T08:24:30.853Z,10.76
2023-01-10T08:27:00.449Z,10.53
2023-01-10T08:29:28.049Z,10.84
2023-01-10T08:31:55.905Z,10.85
2023-01-10T08:34:23.599Z,10.87
2023-01-10T08:36:51.547Z,10.85
2023-01-10T08:39:20.436Z,10.87
2023-01-10T08:41:49.080Z,10.90
2023-01-10T08:44:18.006Z,10.89
2023-01-10T08:46:45.832Z,10.55
2023-01-10T08:49:13.453Z,10.89
2023-01-10T08:51:42.715Z,10.92
2023-01-10T08:54:10.436Z,10.91
2023-01-10T08:56:40.039Z,10.98
2023-01-10T08:59:07.937Z,11.04
2023-01-10T09:01:37.032Z,10.96
2023-01-10T09:04:05.335Z,11.16
2023-01-10T09:06:32.971Z,11.20
2023-01-10T09:09:00.605Z,11.18
2023-01-10T09:11:29.400Z,11.11
2023-01-10T09:13:57.058Z,11.23
2023-01-10T09:16:24.844Z,11.30
2023-01-10T09:18:56.302Z,11.32
2023-01-10T09:21:23.931Z,11.37
2023-01-10T09:23:51.609Z,11.48
2023-01-10T09:26:19.236Z,11.59
2023-01-10T09:28:48.815Z,11.71
2023-01-10T09:31:16.557Z,11.89
2023-01-10T09:33:47.761Z,12.06
2023-01-10T09:36:16.886Z,12.24
2023-01-10T09:38:44.733Z,12.75
2023-01-10T09:41:34.755Z,13.50
2023-01-10T09:44:05.785Z,13.51
2023-01-10T09:46:39.259Z,14.00
2023-01-10T09:49:11.297Z,13.92
2023-01-10T09:51:41.891Z,13.79
2023-01-10T09:54:13.069Z,13.67
2023-01-10T09:56:41.386Z,13.69
2023-01-10T09:59:14.761Z,13.77
2023-01-10T10:01:42.548Z,13.85
2023-01-10T10:04:21.299Z,13.83
2023-01-10T10:06:51.117Z,13.79
2023-01-10T10:09:22.784Z,14.15
2023-01-10T10:11:54.834Z,14.07
2023-01-10T10:14:29.496Z,14.14
2023-01-10T10:17:06.577Z,15.34
2023-01-10T10:19:38.193Z,15.28
2023-01-10T10:22:09.719Z,16.00
2023-01-10T10:24:47.795Z,16.24
2023-01-10T10:27:19.075Z,16.73
2023-01-10T10:30:20.382Z,17.09
2023-01-10T10:32:55.486Z,17.12
2023-01-10T10:35:26.853Z,16.93
2023-01-10T10:37:57.124Z,16.42
2023-01-10T10:40:25.866Z,16.12
2023-01-10T10:42:55.328Z,15.76
2023-01-10T10:45:25.560Z,15.31
2023-01-10T10:47:56.772Z,15.30
2023-01-10T10:50:26.941Z,15.15
2023-01-10T10:52:55.998Z,15.05
2023-01-10T10:55:27.186Z,14.97
2023-01-10T10:57:59.898Z,15.04
2023-01-10T11:00:28.279Z,14.99
2023-01-10T11:02:57.780Z,15.06
2023-01-10T11:05:30.624Z,14.90
2023-01-10T11:08:01.778Z,15.45
2023-01-10T11:10:39.019Z,15.82
2023-01-10T11:13:15.783Z,15.81
2023-01-10T11:15:44.443Z,15.46
2023-01-10T11:18:13.501Z,15.56
2023-01-10T11:20:48.621Z,15.23
2023-01-10T11:23:25.159Z,14.96
2023-01-10T11:25:52.753Z,14.62
2023-01-10T11:28:23.054Z,14.35
2023-01-10T11:30:50.679Z,14.14
2023-01-10T11:33:20.940Z,13.98
2023-01-10T11:35:57.936Z,13.93
2023-01-10T11:38:30.027Z,13.80
2023-01-10T11:40:59.650Z,13.72
2023-01-10T11:43:29.739Z,13.23
2023-01-10T11:45:58.219Z,13.51
2023-01-10T11:48:53.215Z,13.44
2023-01-10T11:51:18.749Z,13.40
2023-01-10T11:53:48.819Z,13.40
2023-01-10T11:56:24.460Z,13.37
2023-01-10T11:58:52.044Z,13.41
2023-01-10T12:01:27.518Z,13.42
2023-01-10T12:03:55.163Z,13.35
2023-01-10T12:06:22.830Z,13.44
2023-01-10T12:08:55.968Z,13.18
2023-01-10T12:11:27.241Z,13.22
2023-01-10T12:13:55.459Z,13.32
2023-01-10T12:16:24.551Z,12.89
2023-01-10T12:18:52.790Z,13.28
2023-01-10T12:21:23.240Z,13.23
2023-01-10T12:23:52.182Z,13.16
2023-01-10T12:26:19.823Z,13.11
2023-01-10T12:28:50.985Z,13.11
2023-01-10T12:31:19.268Z,13.09
2023-01-10T12:33:48.023Z,12.94
2023-01-10T12:36:20.866Z,12.83
2023-01-10T12:39:05.944Z,12.87
2023-01-10T12:41:57.598Z,13.02
2023-01-10T12:44:27.619Z,12.33
2023-01-10T12:47:06.908Z,12.67
2023-01-10T12:49:37.042Z,12.86
2023-01-10T12:52:07.256Z,13.05
2023-01-10T12:54:34.834Z,13.02
2023-01-10T12:57:06.458Z,13.09
2023-01-10T12:59:38.254Z,12.82
2023-01-10T13:02:07.277Z,12.78
2023-01-10T13:04:35.996Z,13.02
2023-01-10T13:07:03.663Z,12.92
2023-01-10T13:09:31.524Z,13.15
2023-01-10T13:14:30.833Z,13.04
2023-01-10T13:17:03.804Z,13.01
2023-01-10T13:19:31.804Z,12.88
2023-01-10T13:22:29.611Z,12.85
2023-01-10T13:24:58.628Z,12.58
2023-01-10T13:27:27.651Z,12.82
2023-01-10T13:29:56.866Z,12.75
2023-01-10T13:32:25.647Z,12.76
2023-01-10T13:34:53.479Z,12.68
2023-01-10T13:37:23.833Z,12.67
2023-01-10T13:39:52.990Z,12.62
2023-01-10T13:42:44.584Z,12.67
2023-01-10T13:45:38.432Z,12.59
2023-01-10T13:48:21.936Z,12.46
2023-01-10T13:50:51.352Z,12.51
2023-01-10T13:53:52.204Z,12.38
2023-01-10T13:56:33.769Z,12.40
2023-01-10T13:59:19.358Z,12.40
2023-01-10T14:02:10.437Z,12.25
2023-01-10T14:04:39.702Z,12.21
2023-01-10T14:07:08.315Z,12.15
2023-01-10T14:09:45.353Z,12.16
2023-01-10T14:12:24.928Z,12.11
2023-01-10T14:14:55.545Z,12.13
2023-01-10T14:17:26.259Z,12.09
2023-01-10T14:20:20.166Z,12.07
2023-01-10T14:22:58.831Z,12.06
2023-01-10T14:25:26.804Z,12.10
2023-01-10T14:27:54.499Z,12.08
2023-01-10T14:30:23.110Z,11.78
2023-01-10T14:32:52.695Z,12.00
2023-01-10T14:35:24.789Z,11.95
2023-01-10T14:37:54.112Z,11.93
2023-01-10T14:40:28.026Z,11.66
2023-01-10T14:42:58.397Z,11.90
2023-01-10T14:45:31.675Z,11.77
2023-01-10T14:48:00.602Z,11.80
2023-01-10T14:50:30.452Z,11.78
2023-01-10T14:52:58.059Z,11.80
2023-01-10T14:55:25.636Z,11.73
2023-01-10T14:57:57.024Z,11.67
2023-01-10T15:00:29.044Z,11.66
2023-01-10T15:02:57.586Z,11.73
2023-01-10T15:05:26.982Z,11.66
2023-01-10T15:07:56.933Z,11.68
2023-01-10T15:10:25.716Z,11.33
2023-01-10T15:12:53.969Z,11.60
2023-01-10T15:15:24.650Z,11.58
2023-01-10T15:17:52.219Z,11.61
2023-01-10T15:20:20.287Z,11.53
2023-01-10T15:22:50.757Z,11.20
2023-01-10T15:25:30.303Z,11.51
2023-01-10T15:27:58.497Z,11.47
2023-01-10T15:30:26.889Z,11.19
2023-01-10T15:32:55.010Z,11.34
2023-01-10T15:35:27.425Z,11.39
2023-01-10T15:38:05.252Z,11.38
2023-01-10T15:40:34.101Z,11.07
2023-01-10T15:43:12.377Z,11.34
2023-01-10T15:45:40.077Z,11.34
2023-01-10T15:48:27.776Z,11.24
2023-01-10T15:50:55.889Z,10.97
2023-01-10T15:53:40.038Z,11.22
2023-01-10T15:56:10.525Z,11.23
2023-01-10T15:58:38.170Z,11.27
2023-01-10T16:01:06.093Z,11.25
2023-01-10T16:03:35.584Z,11.29
2023-01-10T16:06:04.787Z,11.14
2023-01-10T16:08:35.147Z,11.27
2023-01-10T16:11:04.328Z,11.25
2023-01-10T16:13:33.064Z,11.25
2023-01-10T16:16:03.108Z,11.34
2023-01-10T16:18:30.701Z,11.28
2023-01-10T16:20:59.403Z,11.18
2023-01-10T16:23:29.441Z,11.21
2023-01-10T16:25:59.213Z,11.05
2023-01-10T16:28:28.878Z,11.04
2023-01-10T16:30:56.520Z,10.99
2023-01-10T16:33:26.205Z,10.82
2023-01-10T16:35:54.514Z,10.92
2023-01-10T16:38:22.354Z,10.81
2023-01-10T16:40:51.145Z,10.61
2023-01-10T16:43:19.205Z,10.74
2023-01-10T16:45:46.985Z,10.70
2023-01-10T16:48:14.802Z,10.65
2023-01-10T16:50:42.690Z,10.62
2023-01-10T16:53:12.025Z,10.43
2023-01-10T16:55:42.034Z,10.44
2023-01-10T16:58:10.155Z,10.33
2023-01-10T17:00:39.396Z,10.24
2023-01-10T17:03:10.127Z,9.83
2023-01-10T17:05:38.120Z,10.10
2023-01-10T17:08:06.461Z,10.03
2023-01-10T17:10:35.121Z,9.87
2023-01-10T17:13:03.198Z,9.86
2023-01-10T17:15:31.492Z,9.72
2023-01-10T17:18:00.656Z,9.67
2023-01-10T17:20:30.624Z,9.65
2023-01-10T17:22:58.466Z,9.52
2023-01-10T17:25:26.278Z,9.59
2023-01-10T17:27:54.072Z,9.63
2023-01-10T17:30:21.958Z,9.64
2023-01-10T17:32:49.672Z,9.56
2023-01-10T17:35:18.875Z,9.61
2023-01-10T17:37:49.708Z,9.59
2023-01-10T17:40:17.611Z,9.62
2023-01-10T17:42:45.340Z,9.62
2023-01-10T17:45:13.041Z,9.58
2023-01-10T17:47:40.846Z,9.51
2023-01-10T17:50:09.073Z,9.50
2023-01-10T17:52:38.187Z,9.48
2023-01-10T17:55:07.562Z,9.51
2023-01-10T17:57:38.369Z,9.50
2023-01-10T18:00:07.195Z,9.48
2023-01-10T18:02:35.156Z,9.44
2023-01-10T18:05:02.974Z,9.33
2023-01-10T18:07:30.619Z,9.39
2023-01-10T18:10:00.217Z,9.37
2023-01-10T18:12:27.816Z,9.25
2023-01-10T18:14:55.620Z,9.39
2023-01-10T18:17:23.348Z,9.38
2023-01-10T18:19:51.206Z,9.28
2023-01-10T18:22:37.672Z,9.44
2023-01-10T18:25:07.840Z,9.41
2023-01-10T18:27:36.236Z,9.37
2023-01-10T18:30:04.543Z,9.26
2023-01-10T18:32:33.275Z,9.30
2023-01-10T18:35:01.195Z,9.44
2023-01-10T18:37:29.007Z,9.41
2023-01-10T18:39:56.900Z,9.38
2023-01-10T18:42:26.017Z,9.40
2023-01-10T18:44:54.005Z,9.42
2023-01-10T18:47:21.833Z,9.36
2023-01-10T18:49:49.756Z,9.28
2023-01-10T18:52:17.734Z,9.33
2023-01-10T18:54:45.494Z,9.30
2023-01-10T18:57:13.274Z,9.35
2023-01-10T18:59:42.583Z,9.20
2023-01-10T19:02:11.865Z,9.25
2023-01-10T19:04:39.706Z,9.23
2023-01-10T19:07:07.691Z,9.26
2023-01-10T19:09:35.516Z,9.26
2023-01-10T19:12:04.139Z,9.21
2023-01-10T19:14:32.016Z,9.27
2023-01-10T19:17:01.129Z,9.27
2023-01-10T19:19:28.722Z,9.33
2023-01-10T19:21:58.958Z,9.31
2023-01-10T19:24:28.807Z,9.19
2023-01-10T19:26:56.520Z,9.27
2023-01-10T19:29:24.541Z,9.31
2023-01-10T19:31:53.110Z,9.34
2023-01-10T19:34:32.777Z,9.27
2023-01-10T19:37:00.554Z,9.34
2023-01-10T19:39:28.361Z,9.36
2023-01-10T19:41:58.570Z,9.20
2023-01-10T19:44:26.384Z,9.36
2023-01-10T19:46:54.287Z,9.39
2023-01-10T19:49:23.994Z,9.38
2023-01-10T19:51:53.620Z,9.26
2023-01-10T19:54:21.423Z,9.34
2023-01-10T19:56:49.129Z,9.29
2023-01-10T20:01:52.912Z,9.33
2023-01-10T20:04:20.847Z,9.36
2023-01-10T20:06:50.010Z,9.37
2023-01-10T20:09:17.628Z,9.39
2023-01-10T20:11:46.623Z,9.35
2023-01-10T20:14:15.311Z,9.37
2023-01-10T20:16:43.244Z,9.34
2023-01-10T20:19:12.147Z,9.29
2023-01-10T20:21:40.304Z,9.26
2023-01-10T20:24:13.730Z,9.45
2023-01-10T20:26:41.433Z,9.41
2023-01-10T20:29:09.287Z,9.39
2023-01-10T20:31:37.349Z,8.97
2023-01-10T20:34:05.091Z,9.36
2023-01-10T20:36:32.779Z,9.43
2023-01-10T20:39:00.443Z,9.34
2023-01-10T20:41:30.098Z,9.46
2023-01-10T20:43:58.539Z,9.48
2023-01-10T20:46:27.095Z,9.34
2023-01-10T20:48:55.270Z,9.36
2023-01-10T20:51:23.723Z,9.41
2023-01-10T20:53:52.682Z,9.49
2023-01-10T20:56:22.216Z,9.53
2023-01-10T20:58:51.247Z,9.39
2023-01-10T21:01:33.176Z,9.48
2023-01-10T21:04:01.789Z,9.52
2023-01-10T21:06:29.766Z,9.57
2023-01-10T21:08:57.636Z,9.54
2023-01-10T21:11:25.323Z,9.52
2023-01-10T21:13:54.210Z,9.62
2023-01-10T21:16:22.446Z,9.52
2023-01-10T21:18:50.568Z,9.56
2023-01-10T21:21:19.213Z,9.58
2023-01-10T21:23:46.980Z,9.66
2023-01-10T21:26:15.294Z,9.64
2023-01-10T21:28:46.408Z,9.65
2023-01-10T21:31:16.206Z,9.68
2023-01-10T21:33:44.148Z,9.67
2023-01-10T21:36:13.462Z,9.65
2023-01-10T21:38:41.454Z,9.69
2023-01-10T21:41:10.041Z,9.73
2023-01-10T21:43:38.656Z,9.71
2023-01-10T21:46:06.799Z,9.80
2023-01-10T21:48:35.889Z,9.69
2023-01-10T21:51:03.896Z,9.75
2023-01-10T21:53:31.805Z,9.85
2023-01-10T21:55:59.943Z,9.81
2023-01-10T21:58:27.630Z,9.87
2023-01-10T22:00:57.227Z,9.77
2023-01-10T22:03:24.928Z,9.76
2023-01-10T22:05:54.049Z,9.88
2023-01-10T22:08:21.675Z,9.84
2023-01-10T22:10:49.800Z,9.86
2023-01-10T22:13:18.594Z,9.80
2023-01-10T22:15:46.216Z,9.92
2023-01-10T22:18:13.790Z,9.92
2023-01-10T22:20:44.794Z,9.90
2023-01-10T22:23:13.813Z,9.94
2023-01-10T22:25:41.354Z,9.96
2023-01-10T22:28:08.946Z,9.93
2023-01-10T22:30:36.506Z,10.01
2023-01-10T22:33:04.275Z,10.08
2023-01-10T22:35:32.079Z,9.99
2023-01-10T22:37:59.686Z,10.05
2023-01-10T22:40:28.594Z,10.11
2023-01-10T22:42:56.306Z,10.12
2023-01-10T22:45:23.850Z,10.15
2023-01-10T22:47:51.468Z,10.10
2023-01-10T22:50:19.228Z,10.18
2023-01-10T22:52:48.981Z,10.13
2023-01-10T22:55:16.960Z,10.20
2023-01-10T22:57:47.730Z,10.27
2023-01-10T23:00:15.996Z,10.17
2023-01-10T23:02:43.661Z,10.18
2023-01-10T23:05:11.478Z,10.07
2023-01-10T23:07:39.020Z,10.26
2023-01-10T23:10:20.479Z,10.27
2023-01-10T23:12:56.202Z,10.30
2023-01-10T23:15:23.811Z,10.27
2023-01-10T23:17:51.342Z,10.36
2023-01-10T23:20:19.183Z,10.38
2023-01-10T23:22:46.765Z,10.34
2023-01-10T23:25:14.329Z,10.33
2023-01-10T23:27:41.925Z,10.41
2023-01-10T23:30:12.280Z,10.26
2023-01-10T23:32:39.871Z,10.48
2023-01-10T23:35:08.062Z,10.56
2023-01-10T23:37:35.647Z,10.50
2023-01-10T23:40:03.775Z,10.50
2023-01-10T23:42:31.350Z,10.60
2023-01-10T23:44:59.240Z,10.57
2023-01-10T23:47:28.137Z,10.67
2023-01-10T23:49:55.764Z,10.72
2023-01-10T23:52:23.331Z,10.77
2023-01-10T23:54:50.970Z,10.77
2023-01-10T23:57:18.641Z,10.79
2023-01-10T23:59:46.215Z,10.77
